KEOE

Newberry County Airport

Newberry, South Carolina, USA
METAR KEOE 211955Z AUTO 02009G14KT 340V040 7SM CLR 15/00 A3023 RMK AO2
Observed Flight Rules
Oct-21 @ 19:55 UTC (19 hours ago) Visual Flight Rules
Wind Visibility Clouds
20° at 9 knots
 Gusting to 14 knots
7 miles
  • Clear skies
Temperatures Readings
Current 15°C / 59°F
Dewpoint 0°C / 32°F
Humidity 36%
Altimeter 30.23" Hg
Pressure 1024 hPa
Elevation 174
METAR KEOE 211955Z AUTO 02009G14KT 340V040 7SM CLR 15/00 A3023 RMK AO2
Observed Flight Rules
Oct-21 @ 19:55 UTC
(19 hours ago)
VFR
Wind Visibility
20° at 9 knots
 Gusting to 14 knots
7 miles
Clouds
  • Clear skies
Temperature Dewpoint
15°C / 59°F 0°C / 32°F
Humidity Altimeter Pressure
36% 30.23" Hg 1024 hPa